Terminal Aerodrome Forecast
Issued by NWS Grand Forks, ND

Home | Current Version | Previous Version | Text Only | Print | Product List | Glossary Off
Versions: 1 2 3 4 5 6 7 8 9 10 11 12 13 14 15 16

000
FTUS43 KFGF 261109 AAA
TAFFAR
TAF AMD
KFAR 261109Z 2611/2706 29016G23KT P6SM SKC
     FM270100 32013KT P6SM SKC
     FM270300 31009KT P6SM SKC=

USA.gov is the U.S. government's official web portal to all federal, state and local government web resources and services.